TimeCST,TemperatureF,Dew PointF,Humidity,Sea Level PressureIn,VisibilityMPH,Wind Direction,Wind SpeedMPH,Gust SpeedMPH,PrecipitationIn,Events,Conditions,WindDirDegrees,DateUTC
12:15 AM,19.4,17.6,93,29.84,10.0,SW,15.0,24.2,N/A,,Clear,220,2014-01-19 06:15:00
12:35 AM,19.4,17.6,93,29.84,10.0,SW,15.0,-,N/A,,Clear,220,2014-01-19 06:35:00
12:55 AM,19.4,17.6,93,29.83,10.0,SW,11.5,17.3,N/A,,Clear,220,2014-01-19 06:55:00
1:15 AM,19.4,17.6,93,29.83,10.0,SW,13.8,-,N/A,,Clear,220,2014-01-19 07:15:00
1:35 AM,21.2,17.6,86,29.81,-9999.0,SSW,10.4,-,N/A,,Unknown,210,2014-01-19 07:35:00
1:55 AM,21.2,17.6,86,29.80,10.0,SSW,9.2,-,N/A,,Clear,210,2014-01-19 07:55:00
2:15 AM,19.4,17.6,93,29.80,10.0,SW,5.8,-,N/A,,Clear,220,2014-01-19 08:15:00
2:35 AM,19.4,15.8,86,29.78,10.0,SW,4.6,-,N/A,,Clear,230,2014-01-19 08:35:00
2:55 AM,19.4,15.8,86,29.77,10.0,Calm,Calm,-,N/A,,Clear,0,2014-01-19 08:55:00
3:15 AM,19.4,17.6,93,29.76,10.0,SW,9.2,-,N/A,,Clear,230,2014-01-19 09:15:00
3:35 AM,21.2,17.6,86,29.75,10.0,SSW,8.1,-,N/A,,Clear,200,2014-01-19 09:35:00
3:55 AM,19.4,15.8,86,29.74,10.0,SSW,10.4,-,N/A,,Clear,210,2014-01-19 09:55:00
4:15 AM,21.2,17.6,86,29.73,10.0,SSW,11.5,-,N/A,,Clear,210,2014-01-19 10:15:00
4:35 AM,23.0,17.6,80,29.71,10.0,SW,8.1,-,N/A,,Clear,220,2014-01-19 10:35:00
4:55 AM,23.0,19.4,86,29.69,10.0,SW,10.4,-,N/A,,Clear,220,2014-01-19 10:55:00
5:15 AM,23.0,17.6,80,29.69,10.0,SW,12.7,-,N/A,,Clear,220,2014-01-19 11:15:00
5:35 AM,21.2,17.6,86,29.68,10.0,SW,13.8,-,N/A,,Clear,230,2014-01-19 11:35:00
5:55 AM,23.0,19.4,86,29.69,10.0,SW,13.8,-,N/A,,Clear,230,2014-01-19 11:55:00
6:15 AM,23.0,17.6,80,29.68,10.0,SW,10.4,-,N/A,,Clear,230,2014-01-19 12:15:00
6:35 AM,23.0,17.6,80,29.68,10.0,SW,12.7,-,N/A,,Clear,230,2014-01-19 12:35:00
6:55 AM,23.0,17.6,80,29.68,10.0,SW,11.5,-,N/A,,Clear,220,2014-01-19 12:55:00
7:15 AM,23.0,17.6,80,29.67,10.0,SW,10.4,-,N/A,,Clear,230,2014-01-19 13:15:00
7:35 AM,23.0,17.6,80,29.66,10.0,SW,12.7,-,N/A,,Clear,220,2014-01-19 13:35:00
7:55 AM,24.8,17.6,74,29.65,10.0,SW,11.5,-,N/A,,Clear,230,2014-01-19 13:55:00
8:15 AM,24.8,19.4,80,29.66,10.0,SW,10.4,-,N/A,,Clear,230,2014-01-19 14:15:00
8:35 AM,24.8,19.4,80,29.66,10.0,SW,10.4,-,N/A,,Clear,230,2014-01-19 14:35:00
8:55 AM,26.6,21.2,80,29.67,10.0,SW,6.9,-,N/A,,Clear,230,2014-01-19 14:55:00
9:15 AM,26.6,21.2,80,29.66,10.0,SW,6.9,-,N/A,,Clear,220,2014-01-19 15:15:00
9:35 AM,30.2,23.0,75,29.65,10.0,SW,8.1,-,N/A,,Clear,220,2014-01-19 15:35:00
9:55 AM,33.8,26.6,75,29.66,10.0,WSW,10.4,-,N/A,,Clear,240,2014-01-19 15:55:00
10:15 AM,35.6,26.6,70,29.64,10.0,WSW,12.7,18.4,N/A,,Clear,240,2014-01-19 16:15:00
10:35 AM,39.2,26.6,61,29.65,10.0,WSW,11.5,-,N/A,,Clear,250,2014-01-19 16:35:00
10:55 AM,41.0,28.4,61,29.64,10.0,West,13.8,-,N/A,,Clear,260,2014-01-19 16:55:00
11:15 AM,41.0,28.4,61,29.63,10.0,West,16.1,-,N/A,,Clear,260,2014-01-19 17:15:00
11:35 AM,42.8,28.4,57,29.61,10.0,West,15.0,-,N/A,,Clear,260,2014-01-19 17:35:00
11:55 AM,46.4,30.2,53,29.60,10.0,West,21.9,-,N/A,,Clear,270,2014-01-19 17:55:00
12:15 PM,46.4,30.2,53,29.59,10.0,West,17.3,23.0,N/A,,Clear,270,2014-01-19 18:15:00
12:35 PM,48.2,30.2,50,29.58,10.0,West,17.3,28.8,N/A,,Clear,270,2014-01-19 18:35:00
12:55 PM,50.0,30.2,47,29.57,10.0,West,18.4,25.3,N/A,,Clear,270,2014-01-19 18:55:00
1:15 PM,50.0,28.4,43,29.56,10.0,West,23.0,32.2,N/A,,Clear,270,2014-01-19 19:15:00
1:35 PM,51.8,28.4,41,29.56,-9999.0,WNW,26.5,34.5,N/A,,Clear,290,2014-01-19 19:35:00
1:55 PM,50.0,28.4,43,29.56,10.0,West,24.2,38.0,N/A,,Clear,280,2014-01-19 19:55:00
2:15 PM,50.0,28.4,43,29.56,10.0,WNW,29.9,36.8,N/A,,Clear,290,2014-01-19 20:15:00
2:35 PM,50.0,28.4,43,29.56,10.0,WNW,26.5,33.4,N/A,,Clear,290,2014-01-19 20:35:00
2:55 PM,50.0,28.4,43,29.58,10.0,West,27.6,35.7,N/A,,Clear,280,2014-01-19 20:55:00
3:15 PM,48.2,28.4,46,29.59,10.0,WNW,21.9,31.1,N/A,,Clear,290,2014-01-19 21:15:00
3:35 PM,46.4,30.2,53,29.60,10.0,WNW,19.6,28.8,N/A,,Clear,290,2014-01-19 21:35:00
3:55 PM,46.4,30.2,53,29.62,10.0,WNW,18.4,32.2,N/A,,Clear,290,2014-01-19 21:55:00
4:15 PM,46.4,28.4,50,29.63,10.0,WNW,17.3,26.5,N/A,,Clear,300,2014-01-19 22:15:00
4:35 PM,44.6,30.2,57,29.65,10.0,NW,15.0,24.2,N/A,,Clear,310,2014-01-19 22:35:00
4:55 PM,42.8,30.2,61,29.66,10.0,NW,12.7,19.6,N/A,,Clear,310,2014-01-19 22:55:00
5:15 PM,41.0,30.2,65,29.66,10.0,NW,11.5,18.4,N/A,,Clear,310,2014-01-19 23:15:00
5:35 PM,39.2,28.4,65,29.67,10.0,NW,12.7,-,N/A,,Clear,310,2014-01-19 23:35:00
5:55 PM,39.2,28.4,65,29.67,10.0,WNW,12.7,-,N/A,,Clear,290,2014-01-19 23:55:00
6:15 PM,37.4,30.2,75,29.68,10.0,WNW,13.8,-,N/A,,Clear,300,2014-01-20 00:15:00
6:35 PM,37.4,30.2,75,29.69,10.0,WNW,12.7,-,N/A,,Clear,300,2014-01-20 00:35:00
6:55 PM,37.4,30.2,75,29.70,10.0,WNW,12.7,21.9,N/A,,Clear,300,2014-01-20 00:55:00
7:15 PM,37.4,30.2,75,29.71,10.0,WNW,12.7,18.4,N/A,,Clear,290,2014-01-20 01:15:00
7:35 PM,37.4,30.2,75,29.71,10.0,WNW,12.7,19.6,N/A,,Clear,290,2014-01-20 01:35:00
7:55 PM,35.6,30.2,81,29.72,10.0,WNW,12.7,18.4,N/A,,Clear,290,2014-01-20 01:55:00
8:15 PM,35.6,30.2,81,29.73,10.0,WNW,11.5,-,N/A,,Clear,290,2014-01-20 02:15:00
8:35 PM,35.6,30.2,81,29.74,10.0,WNW,11.5,-,N/A,,Clear,300,2014-01-20 02:35:00
8:55 PM,33.8,30.2,87,29.74,10.0,NW,6.9,-,N/A,,Clear,320,2014-01-20 02:55:00
9:15 PM,33.8,28.4,81,29.75,10.0,NNW,8.1,-,N/A,,Clear,340,2014-01-20 03:15:00
9:35 PM,32.0,28.4,87,29.75,10.0,NW,8.1,-,N/A,,Clear,310,2014-01-20 03:35:00
9:55 PM,33.8,28.4,81,29.75,10.0,WNW,8.1,-,N/A,,Clear,300,2014-01-20 03:55:00
10:15 PM,33.8,28.4,81,29.76,10.0,NW,9.2,-,N/A,,Clear,310,2014-01-20 04:15:00
10:35 PM,32.0,28.4,87,29.76,10.0,NW,8.1,-,N/A,,Clear,310,2014-01-20 04:35:00
10:55 PM,30.2,26.6,86,29.76,10.0,WNW,6.9,-,N/A,,Clear,300,2014-01-20 04:55:00
11:15 PM,32.0,28.4,87,29.77,10.0,WNW,8.1,-,N/A,,Mostly Cloudy,290,2014-01-20 05:15:00
11:35 PM,28.4,24.8,86,29.77,10.0,WNW,8.1,-,N/A,,Overcast,290,2014-01-20 05:35:00
11:55 PM,28.4,26.6,93,29.78,10.0,WNW,8.1,-,N/A,,Mostly Cloudy,290,2014-01-20 05:55:00